sensor_id;sensor_type;location;lat;lon;timestamp;temperature;humidity
15765;DHT22;7983;50.744;7.086;2023-02-21T00:00:43;10.60;99.90
15765;DHT22;7983;50.744;7.086;2023-02-21T00:03:27;10.60;99.90
15765;DHT22;7983;50.744;7.086;2023-02-21T00:06:12;10.50;99.90
15765;DHT22;7983;50.744;7.086;2023-02-21T00:08:55;10.50;99.90
15765;DHT22;7983;50.744;7.086;2023-02-21T00:11:41;10.50;99.90
15765;DHT22;7983;50.744;7.086;2023-02-21T00:14:26;10.40;99.90
15765;DHT22;7983;50.744;7.086;2023-02-21T00:17:12;10.40;99.90
15765;DHT22;7983;50.744;7.086;2023-02-21T00:19:59;10.40;99.90
15765;DHT22;7983;50.744;7.086;2023-02-21T00:22:46;10.30;99.90
15765;DHT22;7983;50.744;7.086;2023-02-21T00:25:33;10.40;99.90
15765;DHT22;7983;50.744;7.086;2023-02-21T00:28:20;10.30;99.90
15765;DHT22;7983;50.744;7.086;2023-02-21T00:31:04;10.30;99.90
15765;DHT22;7983;50.744;7.086;2023-02-21T00:33:49;10.30;99.90
15765;DHT22;7983;50.744;7.086;2023-02-21T00:36:33;10.30;99.90
15765;DHT22;7983;50.744;7.086;2023-02-21T00:39:19;10.30;99.90
15765;DHT22;7983;50.744;7.086;2023-02-21T00:42:04;10.20;99.90
15765;DHT22;7983;50.744;7.086;2023-02-21T00:44:48;10.20;99.90
15765;DHT22;7983;50.744;7.086;2023-02-21T00:47:32;10.20;99.90
15765;DHT22;7983;50.744;7.086;2023-02-21T00:50:16;10.20;99.90
15765;DHT22;7983;50.744;7.086;2023-02-21T00:53:00;10.20;99.90
15765;DHT22;7983;50.744;7.086;2023-02-21T00:55:44;10.20;99.90
15765;DHT22;7983;50.744;7.086;2023-02-21T00:58:28;10.30;99.90
15765;DHT22;7983;50.744;7.086;2023-02-21T01:01:14;10.20;99.90
15765;DHT22;7983;50.744;7.086;2023-02-21T01:04:01;10.30;99.90
15765;DHT22;7983;50.744;7.086;2023-02-21T01:06:45;10.30;99.90
15765;DHT22;7983;50.744;7.086;2023-02-21T01:09:29;10.40;99.90
15765;DHT22;7983;50.744;7.086;2023-02-21T01:12:13;10.30;99.90
15765;DHT22;7983;50.744;7.086;2023-02-21T01:14:57;10.40;99.90
15765;DHT22;7983;50.744;7.086;2023-02-21T01:17:41;10.40;99.90
15765;DHT22;7983;50.744;7.086;2023-02-21T01:20:28;10.40;99.90
15765;DHT22;7983;50.744;7.086;2023-02-21T01:23:12;10.40;99.90
15765;DHT22;7983;50.744;7.086;2023-02-21T01:25:58;10.40;99.90
15765;DHT22;7983;50.744;7.086;2023-02-21T01:28:43;10.40;99.90
15765;DHT22;7983;50.744;7.086;2023-02-21T01:31:32;10.40;99.90
15765;DHT22;7983;50.744;7.086;2023-02-21T01:34:18;10.40;99.90
15765;DHT22;7983;50.744;7.086;2023-02-21T01:37:03;10.40;99.90
15765;DHT22;7983;50.744;7.086;2023-02-21T01:39:49;10.50;99.90
15765;DHT22;7983;50.744;7.086;2023-02-21T01:42:34;10.40;99.90
15765;DHT22;7983;50.744;7.086;2023-02-21T01:48:06;10.50;99.90
15765;DHT22;7983;50.744;7.086;2023-02-21T01:50:52;10.50;99.90
15765;DHT22;7983;50.744;7.086;2023-02-21T01:53:39;10.50;99.90
15765;DHT22;7983;50.744;7.086;2023-02-21T01:56:27;10.40;99.90
15765;DHT22;7983;50.744;7.086;2023-02-21T01:59:11;10.50;99.90
15765;DHT22;7983;50.744;7.086;2023-02-21T02:02:20;10.50;99.90
15765;DHT22;7983;50.744;7.086;2023-02-21T02:05:06;10.60;99.90
15765;DHT22;7983;50.744;7.086;2023-02-21T02:07:53;10.50;99.90
15765;DHT22;7983;50.744;7.086;2023-02-21T02:10:40;10.60;99.90
15765;DHT22;7983;50.744;7.086;2023-02-21T02:16:27;10.50;99.90
15765;DHT22;7983;50.744;7.086;2023-02-21T02:35:36;10.50;99.90
15765;DHT22;7983;50.744;7.086;2023-02-21T02:38:22;10.50;99.90
15765;DHT22;7983;50.744;7.086;2023-02-21T02:41:18;10.60;99.90
15765;DHT22;7983;50.744;7.086;2023-02-21T02:43:48;10.60;99.90
15765;DHT22;7983;50.744;7.086;2023-02-21T02:46:23;10.60;99.90
15765;DHT22;7983;50.744;7.086;2023-02-21T02:48:57;10.50;99.90
15765;DHT22;7983;50.744;7.086;2023-02-21T02:51:25;10.60;99.90
15765;DHT22;7983;50.744;7.086;2023-02-21T02:53:51;10.60;99.90
15765;DHT22;7983;50.744;7.086;2023-02-21T02:56:16;10.50;99.90
15765;DHT22;7983;50.744;7.086;2023-02-21T02:58:49;10.50;99.90
15765;DHT22;7983;50.744;7.086;2023-02-21T03:14:51;10.40;99.90
15765;DHT22;7983;50.744;7.086;2023-02-21T03:17:22;10.50;99.90
15765;DHT22;7983;50.744;7.086;2023-02-21T03:19:51;10.50;99.90
15765;DHT22;7983;50.744;7.086;2023-02-21T03:22:23;10.40;99.90
15765;DHT22;7983;50.744;7.086;2023-02-21T03:24:53;10.50;99.90
15765;DHT22;7983;50.744;7.086;2023-02-21T03:27:20;10.40;99.90
15765;DHT22;7983;50.744;7.086;2023-02-21T03:29:47;10.40;99.90
15765;DHT22;7983;50.744;7.086;2023-02-21T03:32:19;10.40;99.90
15765;DHT22;7983;50.744;7.086;2023-02-21T03:34:48;10.50;99.90
15765;DHT22;7983;50.744;7.086;2023-02-21T03:37:32;10.40;99.90
15765;DHT22;7983;50.744;7.086;2023-02-21T03:40:02;10.40;99.90
15765;DHT22;7983;50.744;7.086;2023-02-21T03:42:28;10.40;99.90
15765;DHT22;7983;50.744;7.086;2023-02-21T03:44:56;10.50;99.90
15765;DHT22;7983;50.744;7.086;2023-02-21T03:47:21;10.40;99.90
15765;DHT22;7983;50.744;7.086;2023-02-21T03:49:47;10.50;99.90
15765;DHT22;7983;50.744;7.086;2023-02-21T03:52:13;10.40;99.90
15765;DHT22;7983;50.744;7.086;2023-02-21T03:54:39;10.40;99.90
15765;DHT22;7983;50.744;7.086;2023-02-21T03:57:07;10.50;99.90
15765;DHT22;7983;50.744;7.086;2023-02-21T03:59:33;10.50;99.90
15765;DHT22;7983;50.744;7.086;2023-02-21T04:02:01;10.50;99.90
15765;DHT22;7983;50.744;7.086;2023-02-21T04:04:26;10.50;99.90
15765;DHT22;7983;50.744;7.086;2023-02-21T04:06:52;10.50;99.90
15765;DHT22;7983;50.744;7.086;2023-02-21T04:09:20;10.50;99.90
15765;DHT22;7983;50.744;7.086;2023-02-21T04:11:46;10.40;99.90
15765;DHT22;7983;50.744;7.086;2023-02-21T04:14:12;10.50;99.90
15765;DHT22;7983;50.744;7.086;2023-02-21T04:16:45;10.50;99.90
15765;DHT22;7983;50.744;7.086;2023-02-21T04:19:11;10.50;99.90
15765;DHT22;7983;50.744;7.086;2023-02-21T04:21:38;10.60;99.90
15765;DHT22;7983;50.744;7.086;2023-02-21T04:24:04;10.60;99.90
15765;DHT22;7983;50.744;7.086;2023-02-21T04:26:32;10.50;99.90
15765;DHT22;7983;50.744;7.086;2023-02-21T04:28:59;10.50;99.90
15765;DHT22;7983;50.744;7.086;2023-02-21T04:31:25;10.60;99.90
15765;DHT22;7983;50.744;7.086;2023-02-21T04:33:53;10.50;99.90
15765;DHT22;7983;50.744;7.086;2023-02-21T04:36:21;10.60;99.90
15765;DHT22;7983;50.744;7.086;2023-02-21T04:38:46;10.60;99.90
15765;DHT22;7983;50.744;7.086;2023-02-21T04:41:12;10.60;99.90
15765;DHT22;7983;50.744;7.086;2023-02-21T04:43:43;10.60;99.90
15765;DHT22;7983;50.744;7.086;2023-02-21T04:46:16;10.60;99.90
15765;DHT22;7983;50.744;7.086;2023-02-21T04:48:47;10.60;99.90
15765;DHT22;7983;50.744;7.086;2023-02-21T04:51:15;10.60;99.90
15765;DHT22;7983;50.744;7.086;2023-02-21T04:53:41;10.50;99.90
15765;DHT22;7983;50.744;7.086;2023-02-21T04:56:09;10.50;99.90
15765;DHT22;7983;50.744;7.086;2023-02-21T04:58:37;10.50;99.90
15765;DHT22;7983;50.744;7.086;2023-02-21T05:01:05;10.50;99.90
15765;DHT22;7983;50.744;7.086;2023-02-21T05:03:31;10.50;99.90
15765;DHT22;7983;50.744;7.086;2023-02-21T05:05:56;10.40;99.90
15765;DHT22;7983;50.744;7.086;2023-02-21T05:08:22;10.40;99.90
15765;DHT22;7983;50.744;7.086;2023-02-21T05:10:48;10.40;99.90
15765;DHT22;7983;50.744;7.086;2023-02-21T05:13:14;10.30;99.90
15765;DHT22;7983;50.744;7.086;2023-02-21T05:15:40;10.30;99.90
15765;DHT22;7983;50.744;7.086;2023-02-21T05:18:06;10.30;99.90
15765;DHT22;7983;50.744;7.086;2023-02-21T05:20:34;10.20;99.90
15765;DHT22;7983;50.744;7.086;2023-02-21T05:23:02;10.20;99.90
15765;DHT22;7983;50.744;7.086;2023-02-21T05:25:28;10.20;99.90
15765;DHT22;7983;50.744;7.086;2023-02-21T05:27:53;10.10;99.90
15765;DHT22;7983;50.744;7.086;2023-02-21T05:30:21;10.10;99.90
15765;DHT22;7983;50.744;7.086;2023-02-21T05:32:48;10.10;99.90
15765;DHT22;7983;50.744;7.086;2023-02-21T05:35:16;10.00;99.90
15765;DHT22;7983;50.744;7.086;2023-02-21T05:37:41;9.90;99.90
15765;DHT22;7983;50.744;7.086;2023-02-21T05:40:10;9.90;99.90
15765;DHT22;7983;50.744;7.086;2023-02-21T05:42:36;9.90;99.90
15765;DHT22;7983;50.744;7.086;2023-02-21T05:45:02;9.90;99.90
15765;DHT22;7983;50.744;7.086;2023-02-21T05:47:34;9.90;99.90
15765;DHT22;7983;50.744;7.086;2023-02-21T05:50:03;9.80;99.90
15765;DHT22;7983;50.744;7.086;2023-02-21T05:52:29;9.90;99.90
15765;DHT22;7983;50.744;7.086;2023-02-21T05:54:57;9.80;99.90
15765;DHT22;7983;50.744;7.086;2023-02-21T05:57:25;9.80;99.90
15765;DHT22;7983;50.744;7.086;2023-02-21T05:59:53;9.70;99.90
15765;DHT22;7983;50.744;7.086;2023-02-21T06:02:20;9.70;99.90
15765;DHT22;7983;50.744;7.086;2023-02-21T06:04:48;9.70;99.90
15765;DHT22;7983;50.744;7.086;2023-02-21T06:07:18;9.70;99.90
15765;DHT22;7983;50.744;7.086;2023-02-21T06:09:44;9.60;99.90
15765;DHT22;7983;50.744;7.086;2023-02-21T06:12:12;9.60;99.90
15765;DHT22;7983;50.744;7.086;2023-02-21T06:14:40;9.70;99.90
15765;DHT22;7983;50.744;7.086;2023-02-21T06:17:06;9.60;99.90
15765;DHT22;7983;50.744;7.086;2023-02-21T06:19:34;9.70;99.90
15765;DHT22;7983;50.744;7.086;2023-02-21T06:22:01;9.70;99.90
15765;DHT22;7983;50.744;7.086;2023-02-21T06:24:29;9.80;99.90
15765;DHT22;7983;50.744;7.086;2023-02-21T06:26:57;9.70;99.90
15765;DHT22;7983;50.744;7.086;2023-02-21T06:29:25;9.70;99.90
15765;DHT22;7983;50.744;7.086;2023-02-21T06:31:56;9.70;99.90
15765;DHT22;7983;50.744;7.086;2023-02-21T06:34:22;9.70;99.90
15765;DHT22;7983;50.744;7.086;2023-02-21T06:36:50;9.60;99.90
15765;DHT22;7983;50.744;7.086;2023-02-21T06:39:18;9.60;99.90
15765;DHT22;7983;50.744;7.086;2023-02-21T06:41:44;9.60;99.90
15765;DHT22;7983;50.744;7.086;2023-02-21T06:44:12;9.60;99.90
15765;DHT22;7983;50.744;7.086;2023-02-21T06:46:41;9.70;99.90
15765;DHT22;7983;50.744;7.086;2023-02-21T06:49:06;9.60;99.90
15765;DHT22;7983;50.744;7.086;2023-02-21T06:51:39;9.60;99.90
15765;DHT22;7983;50.744;7.086;2023-02-21T06:54:10;9.70;99.90
15765;DHT22;7983;50.744;7.086;2023-02-21T06:56:38;9.60;99.90
15765;DHT22;7983;50.744;7.086;2023-02-21T06:59:08;9.70;99.90
15765;DHT22;7983;50.744;7.086;2023-02-21T07:01:33;9.70;99.90
15765;DHT22;7983;50.744;7.086;2023-02-21T07:03:59;9.70;99.90
15765;DHT22;7983;50.744;7.086;2023-02-21T07:06:25;9.70;99.90
15765;DHT22;7983;50.744;7.086;2023-02-21T07:08:50;9.70;99.90
15765;DHT22;7983;50.744;7.086;2023-02-21T07:11:19;9.70;99.90
15765;DHT22;7983;50.744;7.086;2023-02-21T07:13:52;9.80;99.90
15765;DHT22;7983;50.744;7.086;2023-02-21T07:16:20;9.80;99.90
15765;DHT22;7983;50.744;7.086;2023-02-21T07:18:46;9.80;99.90
15765;DHT22;7983;50.744;7.086;2023-02-21T07:21:13;9.80;99.90
15765;DHT22;7983;50.744;7.086;2023-02-21T07:23:42;9.80;99.90
15765;DHT22;7983;50.744;7.086;2023-02-21T07:26:07;9.80;99.90
15765;DHT22;7983;50.744;7.086;2023-02-21T07:28:33;9.90;99.90
15765;DHT22;7983;50.744;7.086;2023-02-21T07:31:01;9.90;99.90
15765;DHT22;7983;50.744;7.086;2023-02-21T07:33:27;9.90;99.90
15765;DHT22;7983;50.744;7.086;2023-02-21T07:35:53;10.00;99.90
15765;DHT22;7983;50.744;7.086;2023-02-21T07:38:23;9.90;99.90
15765;DHT22;7983;50.744;7.086;2023-02-21T07:40:49;10.00;99.90
15765;DHT22;7983;50.744;7.086;2023-02-21T07:43:16;10.00;99.90
15765;DHT22;7983;50.744;7.086;2023-02-21T07:45:41;10.00;99.90
15765;DHT22;7983;50.744;7.086;2023-02-21T07:48:07;10.00;99.90
15765;DHT22;7983;50.744;7.086;2023-02-21T07:50:32;10.10;99.90
15765;DHT22;7983;50.744;7.086;2023-02-21T07:52:58;10.10;99.90
15765;DHT22;7983;50.744;7.086;2023-02-21T07:55:26;10.10;99.90
15765;DHT22;7983;50.744;7.086;2023-02-21T07:57:54;10.10;99.90
15765;DHT22;7983;50.744;7.086;2023-02-21T08:00:20;10.10;99.90
15765;DHT22;7983;50.744;7.086;2023-02-21T08:02:49;10.10;99.90
15765;DHT22;7983;50.744;7.086;2023-02-21T08:05:18;10.20;99.90
15765;DHT22;7983;50.744;7.086;2023-02-21T08:07:50;10.20;99.90
15765;DHT22;7983;50.744;7.086;2023-02-21T08:10:23;10.20;99.90
15765;DHT22;7983;50.744;7.086;2023-02-21T08:12:49;10.30;99.90
15765;DHT22;7983;50.744;7.086;2023-02-21T08:15:15;10.30;99.90
15765;DHT22;7983;50.744;7.086;2023-02-21T08:17:41;10.30;99.90
15765;DHT22;7983;50.744;7.086;2023-02-21T08:20:07;10.30;99.90
15765;DHT22;7983;50.744;7.086;2023-02-21T08:22:35;10.30;99.90
15765;DHT22;7983;50.744;7.086;2023-02-21T08:25:03;10.40;99.90
15765;DHT22;7983;50.744;7.086;2023-02-21T08:27:34;10.30;99.90
15765;DHT22;7983;50.744;7.086;2023-02-21T08:29:59;10.30;99.90
15765;DHT22;7983;50.744;7.086;2023-02-21T08:32:25;10.30;99.90
15765;DHT22;7983;50.744;7.086;2023-02-21T08:34:53;10.40;99.90
15765;DHT22;7983;50.744;7.086;2023-02-21T08:37:18;10.40;99.90
15765;DHT22;7983;50.744;7.086;2023-02-21T08:39:51;10.40;99.90
15765;DHT22;7983;50.744;7.086;2023-02-21T08:42:20;10.50;99.90
15765;DHT22;7983;50.744;7.086;2023-02-21T08:44:48;10.50;99.90
15765;DHT22;7983;50.744;7.086;2023-02-21T08:47:15;10.50;99.90
15765;DHT22;7983;50.744;7.086;2023-02-21T08:49:45;10.60;99.90
15765;DHT22;7983;50.744;7.086;2023-02-21T08:52:12;10.60;99.90
15765;DHT22;7983;50.744;7.086;2023-02-21T08:54:39;10.60;99.90
15765;DHT22;7983;50.744;7.086;2023-02-21T08:57:04;10.70;99.90
15765;DHT22;7983;50.744;7.086;2023-02-21T08:59:30;10.90;99.90
15765;DHT22;7983;50.744;7.086;2023-02-21T09:02:00;10.80;99.90
15765;DHT22;7983;50.744;7.086;2023-02-21T09:04:26;10.90;99.90
15765;DHT22;7983;50.744;7.086;2023-02-21T09:06:55;11.00;99.90
15765;DHT22;7983;50.744;7.086;2023-02-21T09:09:20;11.10;99.90
15765;DHT22;7983;50.744;7.086;2023-02-21T09:11:46;11.10;99.90
15765;DHT22;7983;50.744;7.086;2023-02-21T09:14:14;11.20;99.90
15765;DHT22;7983;50.744;7.086;2023-02-21T09:16:40;11.30;99.90
15765;DHT22;7983;50.744;7.086;2023-02-21T09:19:08;11.40;99.90
15765;DHT22;7983;50.744;7.086;2023-02-21T09:21:34;11.50;99.90
15765;DHT22;7983;50.744;7.086;2023-02-21T09:24:00;11.60;99.90
15765;DHT22;7983;50.744;7.086;2023-02-21T09:26:29;11.60;99.90
15765;DHT22;7983;50.744;7.086;2023-02-21T09:29:05;11.70;99.90
15765;DHT22;7983;50.744;7.086;2023-02-21T09:31:33;11.80;99.90
15765;DHT22;7983;50.744;7.086;2023-02-21T09:33:59;11.80;99.90
15765;DHT22;7983;50.744;7.086;2023-02-21T09:36:24;11.90;99.90
15765;DHT22;7983;50.744;7.086;2023-02-21T09:38:50;11.90;99.90
15765;DHT22;7983;50.744;7.086;2023-02-21T09:41:16;12.00;99.90
15765;DHT22;7983;50.744;7.086;2023-02-21T09:43:45;12.10;99.90
15765;DHT22;7983;50.744;7.086;2023-02-21T09:49:30;12.20;99.90
15765;DHT22;7983;50.744;7.086;2023-02-21T09:51:58;12.20;99.90
15765;DHT22;7983;50.744;7.086;2023-02-21T09:57:01;12.30;99.90
15765;DHT22;7983;50.744;7.086;2023-02-21T09:59:27;12.30;99.90
15765;DHT22;7983;50.744;7.086;2023-02-21T10:02:08;12.40;99.90
15765;DHT22;7983;50.744;7.086;2023-02-21T10:10:20;12.40;99.90
15765;DHT22;7983;50.744;7.086;2023-02-21T10:21:31;12.60;99.90
15765;DHT22;7983;50.744;7.086;2023-02-21T10:23:58;12.90;99.90
15765;DHT22;7983;50.744;7.086;2023-02-21T10:26:32;13.20;99.90
15765;DHT22;7983;50.744;7.086;2023-02-21T10:29:00;13.60;99.90
15765;DHT22;7983;50.744;7.086;2023-02-21T10:33:54;14.00;99.90
15765;DHT22;7983;50.744;7.086;2023-02-21T10:36:24;14.30;99.90
15765;DHT22;7983;50.744;7.086;2023-02-21T10:38:57;14.50;99.90
15765;DHT22;7983;50.744;7.086;2023-02-21T10:41:27;14.90;99.90
15765;DHT22;7983;50.744;7.086;2023-02-21T10:44:29;15.20;99.90
15765;DHT22;7983;50.744;7.086;2023-02-21T10:49:47;15.50;99.90
15765;DHT22;7983;50.744;7.086;2023-02-21T10:52:17;15.60;99.90
15765;DHT22;7983;50.744;7.086;2023-02-21T10:55:03;15.70;99.90
15765;DHT22;7983;50.744;7.086;2023-02-21T10:57:40;15.80;99.90
15765;DHT22;7983;50.744;7.086;2023-02-21T11:00:42;15.90;99.90
15765;DHT22;7983;50.744;7.086;2023-02-21T11:03:20;16.00;99.90
15765;DHT22;7983;50.744;7.086;2023-02-21T11:05:57;16.10;99.90
15765;DHT22;7983;50.744;7.086;2023-02-21T11:08:43;16.20;99.90
15765;DHT22;7983;50.744;7.086;2023-02-21T11:11:09;16.40;99.90
15765;DHT22;7983;50.744;7.086;2023-02-21T11:13:36;16.50;99.90
15765;DHT22;7983;50.744;7.086;2023-02-21T11:16:18;16.70;99.90
15765;DHT22;7983;50.744;7.086;2023-02-21T11:19:03;16.80;99.90
15765;DHT22;7983;50.744;7.086;2023-02-21T11:21:30;16.80;99.90
15765;DHT22;7983;50.744;7.086;2023-02-21T11:23:59;16.90;99.90
15765;DHT22;7983;50.744;7.086;2023-02-21T11:26:34;16.90;99.90
15765;DHT22;7983;50.744;7.086;2023-02-21T11:29:09;16.90;99.90
15765;DHT22;7983;50.744;7.086;2023-02-21T11:31:38;16.90;99.90
15765;DHT22;7983;50.744;7.086;2023-02-21T11:34:06;17.00;99.90
15765;DHT22;7983;50.744;7.086;2023-02-21T11:36:35;17.10;99.90
15765;DHT22;7983;50.744;7.086;2023-02-21T11:39:05;17.20;99.90
15765;DHT22;7983;50.744;7.086;2023-02-21T11:44:26;17.50;99.90
15765;DHT22;7983;50.744;7.086;2023-02-21T11:47:25;17.60;99.90
15765;DHT22;7983;50.744;7.086;2023-02-21T11:50:09;17.80;99.90
15765;DHT22;7983;50.744;7.086;2023-02-21T11:55:22;18.10;99.90
15765;DHT22;7983;50.744;7.086;2023-02-21T12:00:59;18.20;99.90
15765;DHT22;7983;50.744;7.086;2023-02-21T12:19:43;18.00;99.90
15765;DHT22;7983;50.744;7.086;2023-02-21T12:22:26;18.10;99.90
15765;DHT22;7983;50.744;7.086;2023-02-21T12:25:06;18.10;99.90
15765;DHT22;7983;50.744;7.086;2023-02-21T12:27:50;18.10;99.90
15765;DHT22;7983;50.744;7.086;2023-02-21T12:47:37;17.90;99.90
15765;DHT22;7983;50.744;7.086;2023-02-21T12:50:43;17.90;99.90
15765;DHT22;7983;50.744;7.086;2023-02-21T12:53:18;17.80;99.90
15765;DHT22;7983;50.744;7.086;2023-02-21T12:56:07;17.80;99.90
15765;DHT22;7983;50.744;7.086;2023-02-21T13:01:12;17.80;99.90
15765;DHT22;7983;50.744;7.086;2023-02-21T13:03:42;17.80;99.90
15765;DHT22;7983;50.744;7.086;2023-02-21T13:06:34;17.80;99.90
15765;DHT22;7983;50.744;7.086;2023-02-21T13:09:14;17.90;99.90
15765;DHT22;7983;50.744;7.086;2023-02-21T13:14:14;18.10;99.90
15765;DHT22;7983;50.744;7.086;2023-02-21T13:16:41;18.20;99.90
15765;DHT22;7983;50.744;7.086;2023-02-21T13:19:09;18.30;99.90
15765;DHT22;7983;50.744;7.086;2023-02-21T13:27:19;18.80;99.90
15765;DHT22;7983;50.744;7.086;2023-02-21T13:29:50;18.80;99.90
15765;DHT22;7983;50.744;7.086;2023-02-21T13:32:18;18.90;99.90
15765;DHT22;7983;50.744;7.086;2023-02-21T13:34:52;18.90;99.90
15765;DHT22;7983;50.744;7.086;2023-02-21T13:37:23;18.90;99.90
15765;DHT22;7983;50.744;7.086;2023-02-21T13:40:03;18.90;99.90
15765;DHT22;7983;50.744;7.086;2023-02-21T13:42:33;18.90;99.90
15765;DHT22;7983;50.744;7.086;2023-02-21T13:45:17;18.90;99.90
15765;DHT22;7983;50.744;7.086;2023-02-21T13:50:45;18.90;99.90
15765;DHT22;7983;50.744;7.086;2023-02-21T13:53:17;18.90;99.90
15765;DHT22;7983;50.744;7.086;2023-02-21T14:03:56;19.10;99.90
15765;DHT22;7983;50.744;7.086;2023-02-21T14:06:33;19.10;99.90
15765;DHT22;7983;50.744;7.086;2023-02-21T14:09:07;19.10;99.90
15765;DHT22;7983;50.744;7.086;2023-02-21T14:11:44;19.10;99.90
15765;DHT22;7983;50.744;7.086;2023-02-21T14:19:34;18.90;99.90
15765;DHT22;7983;50.744;7.086;2023-02-21T14:22:28;19.00;99.90
15765;DHT22;7983;50.744;7.086;2023-02-21T14:25:15;19.00;99.90
15765;DHT22;7983;50.744;7.086;2023-02-21T14:27:44;18.90;99.90
15765;DHT22;7983;50.744;7.086;2023-02-21T14:32:42;18.90;99.90
15765;DHT22;7983;50.744;7.086;2023-02-21T14:35:34;18.90;99.90
15765;DHT22;7983;50.744;7.086;2023-02-21T14:38:05;18.80;99.90
15765;DHT22;7983;50.744;7.086;2023-02-21T14:40:57;18.80;99.90
15765;DHT22;7983;50.744;7.086;2023-02-21T15:02:52;18.10;99.90
15765;DHT22;7983;50.744;7.086;2023-02-21T15:05:30;18.10;99.90
15765;DHT22;7983;50.744;7.086;2023-02-21T15:10:29;18.10;99.90
15765;DHT22;7983;50.744;7.086;2023-02-21T15:15:26;18.10;99.90
15765;DHT22;7983;50.744;7.086;2023-02-21T15:18:02;18.10;99.90
15765;DHT22;7983;50.744;7.086;2023-02-21T15:20:30;18.10;99.90
15765;DHT22;7983;50.744;7.086;2023-02-21T15:25:32;18.00;99.90
15765;DHT22;7983;50.744;7.086;2023-02-21T15:27:59;18.00;99.90
15765;DHT22;7983;50.744;7.086;2023-02-21T15:30:35;17.90;99.90
15765;DHT22;7983;50.744;7.086;2023-02-21T15:33:16;17.70;99.90
15765;DHT22;7983;50.744;7.086;2023-02-21T15:43:57;17.00;99.90
15765;DHT22;7983;50.744;7.086;2023-02-21T15:46:31;16.90;99.90
15765;DHT22;7983;50.744;7.086;2023-02-21T15:49:00;16.80;99.90
15765;DHT22;7983;50.744;7.086;2023-02-21T15:51:29;16.70;99.90
15765;DHT22;7983;50.744;7.086;2023-02-21T15:57:14;16.50;99.90
15765;DHT22;7983;50.744;7.086;2023-02-21T15:59:42;16.50;99.90
15765;DHT22;7983;50.744;7.086;2023-02-21T16:04:46;16.30;99.90
15765;DHT22;7983;50.744;7.086;2023-02-21T16:07:22;16.20;99.90
15765;DHT22;7983;50.744;7.086;2023-02-21T16:09:59;16.10;99.90
15765;DHT22;7983;50.744;7.086;2023-02-21T16:17:38;15.90;99.90
15765;DHT22;7983;50.744;7.086;2023-02-21T16:22:40;15.70;99.90
15765;DHT22;7983;50.744;7.086;2023-02-21T16:25:16;15.60;99.90
15765;DHT22;7983;50.744;7.086;2023-02-21T16:27:56;15.50;99.90
15765;DHT22;7983;50.744;7.086;2023-02-21T16:30:23;15.40;99.90
15765;DHT22;7983;50.744;7.086;2023-02-21T16:32:53;15.30;99.90
15765;DHT22;7983;50.744;7.086;2023-02-21T16:35:21;15.20;99.90
15765;DHT22;7983;50.744;7.086;2023-02-21T16:37:58;15.00;99.90
15765;DHT22;7983;50.744;7.086;2023-02-21T16:40:32;14.90;99.90
15765;DHT22;7983;50.744;7.086;2023-02-21T16:42:59;14.80;99.90
15765;DHT22;7983;50.744;7.086;2023-02-21T16:45:27;14.60;99.90
15765;DHT22;7983;50.744;7.086;2023-02-21T16:47:58;14.50;99.90
15765;DHT22;7983;50.744;7.086;2023-02-21T16:50:28;14.40;99.90
15765;DHT22;7983;50.744;7.086;2023-02-21T16:52:54;14.30;99.90
15765;DHT22;7983;50.744;7.086;2023-02-21T16:55:22;14.10;99.90
15765;DHT22;7983;50.744;7.086;2023-02-21T16:57:53;14.00;99.90
15765;DHT22;7983;50.744;7.086;2023-02-21T17:00:22;13.80;99.90
15765;DHT22;7983;50.744;7.086;2023-02-21T17:02:53;13.70;99.90
15765;DHT22;7983;50.744;7.086;2023-02-21T17:05:20;13.50;99.90
15765;DHT22;7983;50.744;7.086;2023-02-21T17:07:47;13.40;99.90
15765;DHT22;7983;50.744;7.086;2023-02-21T17:10:14;13.30;99.90
15765;DHT22;7983;50.744;7.086;2023-02-21T17:12:42;13.20;99.90
15765;DHT22;7983;50.744;7.086;2023-02-21T17:15:11;13.10;99.90
15765;DHT22;7983;50.744;7.086;2023-02-21T17:17:39;13.00;99.90
15765;DHT22;7983;50.744;7.086;2023-02-21T17:20:06;12.90;99.90
15765;DHT22;7983;50.744;7.086;2023-02-21T17:22:33;12.80;99.90
15765;DHT22;7983;50.744;7.086;2023-02-21T17:24:59;12.70;99.90
15765;DHT22;7983;50.744;7.086;2023-02-21T17:27:27;12.60;99.90
15765;DHT22;7983;50.744;7.086;2023-02-21T17:29:55;12.50;99.90
15765;DHT22;7983;50.744;7.086;2023-02-21T17:32:25;12.40;99.90
15765;DHT22;7983;50.744;7.086;2023-02-21T17:34:51;12.30;99.90
15765;DHT22;7983;50.744;7.086;2023-02-21T17:37:22;12.20;99.90
15765;DHT22;7983;50.744;7.086;2023-02-21T17:39:56;12.10;99.90
15765;DHT22;7983;50.744;7.086;2023-02-21T17:42:24;12.10;99.90
15765;DHT22;7983;50.744;7.086;2023-02-21T17:44:53;12.00;99.90
15765;DHT22;7983;50.744;7.086;2023-02-21T17:47:22;11.90;99.90
15765;DHT22;7983;50.744;7.086;2023-02-21T17:49:50;11.80;99.90
15765;DHT22;7983;50.744;7.086;2023-02-21T17:52:21;11.70;99.90
15765;DHT22;7983;50.744;7.086;2023-02-21T17:54:49;11.70;99.90
15765;DHT22;7983;50.744;7.086;2023-02-21T17:57:14;11.60;99.90
15765;DHT22;7983;50.744;7.086;2023-02-21T17:59:42;11.50;99.90
15765;DHT22;7983;50.744;7.086;2023-02-21T18:02:10;11.50;99.90
15765;DHT22;7983;50.744;7.086;2023-02-21T18:04:40;11.40;99.90
15765;DHT22;7983;50.744;7.086;2023-02-21T18:07:06;11.30;99.90
15765;DHT22;7983;50.744;7.086;2023-02-21T18:09:34;11.30;99.90
15765;DHT22;7983;50.744;7.086;2023-02-21T18:11:59;11.20;99.90
15765;DHT22;7983;50.744;7.086;2023-02-21T18:14:26;11.20;99.90
15765;DHT22;7983;50.744;7.086;2023-02-21T18:16:55;11.20;99.90
15765;DHT22;7983;50.744;7.086;2023-02-21T18:19:23;11.20;99.90
15765;DHT22;7983;50.744;7.086;2023-02-21T18:21:49;11.10;99.90
15765;DHT22;7983;50.744;7.086;2023-02-21T18:24:15;11.10;99.90
15765;DHT22;7983;50.744;7.086;2023-02-21T18:26:46;11.00;99.90
15765;DHT22;7983;50.744;7.086;2023-02-21T18:29:14;10.90;99.90
15765;DHT22;7983;50.744;7.086;2023-02-21T18:31:40;10.90;99.90
15765;DHT22;7983;50.744;7.086;2023-02-21T18:34:05;10.80;99.90
15765;DHT22;7983;50.744;7.086;2023-02-21T18:36:32;10.80;99.90
15765;DHT22;7983;50.744;7.086;2023-02-21T18:38:57;10.70;99.90
15765;DHT22;7983;50.744;7.086;2023-02-21T18:41:25;10.70;99.90
15765;DHT22;7983;50.744;7.086;2023-02-21T18:43:53;10.60;99.90
15765;DHT22;7983;50.744;7.086;2023-02-21T18:46:20;10.60;99.90
15765;DHT22;7983;50.744;7.086;2023-02-21T18:48:49;10.60;99.90
15765;DHT22;7983;50.744;7.086;2023-02-21T18:51:17;10.50;99.90
15765;DHT22;7983;50.744;7.086;2023-02-21T18:53:44;10.50;99.90
15765;DHT22;7983;50.744;7.086;2023-02-21T18:56:15;10.40;99.90
15765;DHT22;7983;50.744;7.086;2023-02-21T18:58:44;10.40;99.90
15765;DHT22;7983;50.744;7.086;2023-02-21T19:01:13;10.40;99.90
15765;DHT22;7983;50.744;7.086;2023-02-21T19:03:41;10.30;99.90
15765;DHT22;7983;50.744;7.086;2023-02-21T19:06:10;10.30;99.90
15765;DHT22;7983;50.744;7.086;2023-02-21T19:08:36;10.20;99.90
15765;DHT22;7983;50.744;7.086;2023-02-21T19:11:04;10.20;99.90
15765;DHT22;7983;50.744;7.086;2023-02-21T19:13:31;10.20;99.90
15765;DHT22;7983;50.744;7.086;2023-02-21T19:15:57;10.10;99.90
15765;DHT22;7983;50.744;7.086;2023-02-21T19:18:24;10.10;99.90